sensor_id;sensor_type;location;lat;lon;timestamp;temperature;humidity
51837;DHT22;38941;53.254;6.600;2023-05-10T00:00:57;13.40;99.90
51837;DHT22;38941;53.254;6.600;2023-05-10T00:02:58;13.40;99.90
51837;DHT22;38941;53.254;6.600;2023-05-10T00:04:59;13.40;99.90
51837;DHT22;38941;53.254;6.600;2023-05-10T00:06:59;13.30;99.90
51837;DHT22;38941;53.254;6.600;2023-05-10T00:09:00;13.30;99.90
51837;DHT22;38941;53.254;6.600;2023-05-10T00:11:02;13.30;99.90
51837;DHT22;38941;53.254;6.600;2023-05-10T00:13:03;13.20;99.90
51837;DHT22;38941;53.254;6.600;2023-05-10T00:17:05;13.20;99.90
51837;DHT22;38941;53.254;6.600;2023-05-10T00:19:06;13.20;99.90
51837;DHT22;38941;53.254;6.600;2023-05-10T00:21:07;13.10;99.90
51837;DHT22;38941;53.254;6.600;2023-05-10T00:23:08;13.10;99.90
51837;DHT22;38941;53.254;6.600;2023-05-10T00:25:08;13.10;99.90
51837;DHT22;38941;53.254;6.600;2023-05-10T00:27:10;13.10;99.90
51837;DHT22;38941;53.254;6.600;2023-05-10T00:29:11;13.10;99.90
51837;DHT22;38941;53.254;6.600;2023-05-10T00:31:12;13.10;99.90
51837;DHT22;38941;53.254;6.600;2023-05-10T00:33:12;13.00;99.90
51837;DHT22;38941;53.254;6.600;2023-05-10T00:35:13;13.00;99.90
51837;DHT22;38941;53.254;6.600;2023-05-10T00:37:15;13.00;99.90
51837;DHT22;38941;53.254;6.600;2023-05-10T00:39:16;13.00;99.90
51837;DHT22;38941;53.254;6.600;2023-05-10T00:41:17;12.90;99.90
51837;DHT22;38941;53.254;6.600;2023-05-10T00:43:17;12.90;99.90
51837;DHT22;38941;53.254;6.600;2023-05-10T00:45:18;12.90;99.90
51837;DHT22;38941;53.254;6.600;2023-05-10T00:47:19;12.90;99.90
51837;DHT22;38941;53.254;6.600;2023-05-10T00:49:20;12.90;99.90
51837;DHT22;38941;53.254;6.600;2023-05-10T00:51:21;12.90;99.90
51837;DHT22;38941;53.254;6.600;2023-05-10T00:53:24;12.90;99.90
51837;DHT22;38941;53.254;6.600;2023-05-10T00:55:25;12.90;99.90
51837;DHT22;38941;53.254;6.600;2023-05-10T00:57:26;12.90;99.90
51837;DHT22;38941;53.254;6.600;2023-05-10T00:59:28;12.90;99.90
51837;DHT22;38941;53.254;6.600;2023-05-10T01:01:29;12.90;99.90
51837;DHT22;38941;53.254;6.600;2023-05-10T01:03:31;12.90;99.90
51837;DHT22;38941;53.254;6.600;2023-05-10T01:05:32;12.90;99.90
51837;DHT22;38941;53.254;6.600;2023-05-10T01:07:33;12.90;99.90
51837;DHT22;38941;53.254;6.600;2023-05-10T01:09:34;12.80;99.90
51837;DHT22;38941;53.254;6.600;2023-05-10T01:11:36;12.80;99.90
51837;DHT22;38941;53.254;6.600;2023-05-10T01:13:39;12.80;99.90
51837;DHT22;38941;53.254;6.600;2023-05-10T01:15:41;12.80;99.90
51837;DHT22;38941;53.254;6.600;2023-05-10T01:17:43;12.30;99.90
51837;DHT22;38941;53.254;6.600;2023-05-10T01:19:45;12.80;99.90
51837;DHT22;38941;53.254;6.600;2023-05-10T01:21:58;12.70;99.90
51837;DHT22;38941;53.254;6.600;2023-05-10T01:29:18;12.70;99.90
51837;DHT22;38941;53.254;6.600;2023-05-10T01:34:08;12.60;99.90
51837;DHT22;38941;53.254;6.600;2023-05-10T01:36:31;12.60;99.90
51837;DHT22;38941;53.254;6.600;2023-05-10T01:38:47;12.60;99.90
51837;DHT22;38941;53.254;6.600;2023-05-10T01:41:24;12.60;99.90
51837;DHT22;38941;53.254;6.600;2023-05-10T01:43:32;12.60;99.90
51837;DHT22;38941;53.254;6.600;2023-05-10T01:45:45;12.50;99.90
51837;DHT22;38941;53.254;6.600;2023-05-10T01:47:54;12.60;99.90
51837;DHT22;38941;53.254;6.600;2023-05-10T01:50:02;12.50;99.90
51837;DHT22;38941;53.254;6.600;2023-05-10T01:52:09;12.60;99.90
51837;DHT22;38941;53.254;6.600;2023-05-10T01:54:12;12.60;99.90
51837;DHT22;38941;53.254;6.600;2023-05-10T01:56:14;12.50;99.90
51837;DHT22;38941;53.254;6.600;2023-05-10T01:58:27;12.50;99.90
51837;DHT22;38941;53.254;6.600;2023-05-10T02:00:29;12.60;99.90
51837;DHT22;38941;53.254;6.600;2023-05-10T02:02:35;12.60;99.90
51837;DHT22;38941;53.254;6.600;2023-05-10T02:04:39;12.60;99.90
51837;DHT22;38941;53.254;6.600;2023-05-10T02:06:41;12.60;99.90
51837;DHT22;38941;53.254;6.600;2023-05-10T02:08:43;12.50;99.90
51837;DHT22;38941;53.254;6.600;2023-05-10T02:10:46;12.50;99.90
51837;DHT22;38941;53.254;6.600;2023-05-10T02:12:50;12.60;99.90
51837;DHT22;38941;53.254;6.600;2023-05-10T02:14:52;12.50;99.90
51837;DHT22;38941;53.254;6.600;2023-05-10T02:16:54;12.60;99.90
51837;DHT22;38941;53.254;6.600;2023-05-10T02:18:59;12.50;99.90
51837;DHT22;38941;53.254;6.600;2023-05-10T02:21:02;12.50;99.90
51837;DHT22;38941;53.254;6.600;2023-05-10T02:23:03;12.50;99.90
51837;DHT22;38941;53.254;6.600;2023-05-10T02:25:07;12.50;99.90
51837;DHT22;38941;53.254;6.600;2023-05-10T02:27:10;12.50;99.90
51837;DHT22;38941;53.254;6.600;2023-05-10T02:29:13;12.50;99.90
51837;DHT22;38941;53.254;6.600;2023-05-10T02:31:15;12.40;99.90
51837;DHT22;38941;53.254;6.600;2023-05-10T02:33:18;12.40;99.90
51837;DHT22;38941;53.254;6.600;2023-05-10T02:35:20;12.40;99.90
51837;DHT22;38941;53.254;6.600;2023-05-10T02:37:24;12.40;99.90
51837;DHT22;38941;53.254;6.600;2023-05-10T02:39:27;12.40;99.90
51837;DHT22;38941;53.254;6.600;2023-05-10T02:41:30;12.40;99.90
51837;DHT22;38941;53.254;6.600;2023-05-10T02:43:33;12.40;99.90
51837;DHT22;38941;53.254;6.600;2023-05-10T02:45:35;12.40;99.90
51837;DHT22;38941;53.254;6.600;2023-05-10T02:47:37;12.40;99.90
51837;DHT22;38941;53.254;6.600;2023-05-10T02:49:37;12.40;99.90
51837;DHT22;38941;53.254;6.600;2023-05-10T02:51:42;12.30;99.90
51837;DHT22;38941;53.254;6.600;2023-05-10T02:53:47;12.30;99.90
51837;DHT22;38941;53.254;6.600;2023-05-10T02:55:52;12.30;99.90
51837;DHT22;38941;53.254;6.600;2023-05-10T02:57:58;12.30;99.90
51837;DHT22;38941;53.254;6.600;2023-05-10T03:00:00;12.30;99.90
51837;DHT22;38941;53.254;6.600;2023-05-10T03:02:02;12.30;99.90
51837;DHT22;38941;53.254;6.600;2023-05-10T03:04:04;12.30;99.90
51837;DHT22;38941;53.254;6.600;2023-05-10T03:06:05;12.30;99.90
51837;DHT22;38941;53.254;6.600;2023-05-10T03:08:06;12.30;99.90
51837;DHT22;38941;53.254;6.600;2023-05-10T03:10:07;12.30;99.90
51837;DHT22;38941;53.254;6.600;2023-05-10T03:19:51;12.30;99.90
51837;DHT22;38941;53.254;6.600;2023-05-10T03:21:59;12.30;99.90
51837;DHT22;38941;53.254;6.600;2023-05-10T03:24:06;12.30;99.90
51837;DHT22;38941;53.254;6.600;2023-05-10T03:26:08;12.30;99.90
51837;DHT22;38941;53.254;6.600;2023-05-10T03:28:09;12.30;99.90
51837;DHT22;38941;53.254;6.600;2023-05-10T03:30:11;12.30;99.90
51837;DHT22;38941;53.254;6.600;2023-05-10T03:32:12;12.30;99.90
51837;DHT22;38941;53.254;6.600;2023-05-10T03:34:13;12.30;99.90
51837;DHT22;38941;53.254;6.600;2023-05-10T03:36:15;12.30;99.90
51837;DHT22;38941;53.254;6.600;2023-05-10T03:38:16;12.30;99.90
51837;DHT22;38941;53.254;6.600;2023-05-10T03:40:17;12.30;99.90
51837;DHT22;38941;53.254;6.600;2023-05-10T03:42:18;12.30;99.90
51837;DHT22;38941;53.254;6.600;2023-05-10T03:44:18;12.30;99.90
51837;DHT22;38941;53.254;6.600;2023-05-10T03:46:19;12.30;99.90
51837;DHT22;38941;53.254;6.600;2023-05-10T03:48:20;12.30;99.90
51837;DHT22;38941;53.254;6.600;2023-05-10T03:50:21;12.30;99.90
51837;DHT22;38941;53.254;6.600;2023-05-10T03:52:22;12.30;99.90
51837;DHT22;38941;53.254;6.600;2023-05-10T03:54:22;12.30;99.90
51837;DHT22;38941;53.254;6.600;2023-05-10T03:56:23;12.30;99.90
51837;DHT22;38941;53.254;6.600;2023-05-10T03:58:24;12.30;99.90
51837;DHT22;38941;53.254;6.600;2023-05-10T04:00:25;12.30;99.90
51837;DHT22;38941;53.254;6.600;2023-05-10T04:02:26;12.30;99.90
51837;DHT22;38941;53.254;6.600;2023-05-10T04:04:26;12.30;99.90
51837;DHT22;38941;53.254;6.600;2023-05-10T04:06:28;12.30;99.90
51837;DHT22;38941;53.254;6.600;2023-05-10T04:08:29;12.30;99.90
51837;DHT22;38941;53.254;6.600;2023-05-10T04:10:30;12.30;99.90
51837;DHT22;38941;53.254;6.600;2023-05-10T04:12:31;12.30;99.90
51837;DHT22;38941;53.254;6.600;2023-05-10T04:14:31;12.20;99.90
51837;DHT22;38941;53.254;6.600;2023-05-10T04:16:42;12.20;99.90
51837;DHT22;38941;53.254;6.600;2023-05-10T04:18:43;12.20;99.90
51837;DHT22;38941;53.254;6.600;2023-05-10T04:20:44;12.20;99.90
51837;DHT22;38941;53.254;6.600;2023-05-10T04:22:45;12.20;99.90
51837;DHT22;38941;53.254;6.600;2023-05-10T04:24:46;12.20;99.90
51837;DHT22;38941;53.254;6.600;2023-05-10T04:26:47;12.20;99.90
51837;DHT22;38941;53.254;6.600;2023-05-10T04:28:47;12.10;99.90
51837;DHT22;38941;53.254;6.600;2023-05-10T04:30:48;12.20;99.90
51837;DHT22;38941;53.254;6.600;2023-05-10T04:32:49;12.20;99.90
51837;DHT22;38941;53.254;6.600;2023-05-10T04:34:50;12.20;99.90
51837;DHT22;38941;53.254;6.600;2023-05-10T04:36:51;12.20;99.90
51837;DHT22;38941;53.254;6.600;2023-05-10T04:38:53;12.20;99.90
51837;DHT22;38941;53.254;6.600;2023-05-10T04:40:54;12.20;99.90
51837;DHT22;38941;53.254;6.600;2023-05-10T04:42:55;12.20;99.90
51837;DHT22;38941;53.254;6.600;2023-05-10T04:44:55;12.20;99.90
51837;DHT22;38941;53.254;6.600;2023-05-10T04:46:56;12.10;99.90
51837;DHT22;38941;53.254;6.600;2023-05-10T04:48:57;12.10;99.90
51837;DHT22;38941;53.254;6.600;2023-05-10T04:50:58;12.10;99.90
51837;DHT22;38941;53.254;6.600;2023-05-10T04:52:58;12.10;99.90
51837;DHT22;38941;53.254;6.600;2023-05-10T04:54:59;12.10;99.90
51837;DHT22;38941;53.254;6.600;2023-05-10T04:57:00;12.20;99.90
51837;DHT22;38941;53.254;6.600;2023-05-10T04:59:00;12.20;99.90
51837;DHT22;38941;53.254;6.600;2023-05-10T05:01:05;12.20;99.90
51837;DHT22;38941;53.254;6.600;2023-05-10T05:03:07;12.20;99.90
51837;DHT22;38941;53.254;6.600;2023-05-10T05:05:09;12.20;99.90
51837;DHT22;38941;53.254;6.600;2023-05-10T05:07:10;12.20;99.90
51837;DHT22;38941;53.254;6.600;2023-05-10T05:09:11;12.20;99.90
51837;DHT22;38941;53.254;6.600;2023-05-10T05:11:11;12.10;99.90
51837;DHT22;38941;53.254;6.600;2023-05-10T05:13:12;12.20;99.90
51837;DHT22;38941;53.254;6.600;2023-05-10T05:15:13;12.10;99.90
51837;DHT22;38941;53.254;6.600;2023-05-10T05:17:15;12.20;99.90
51837;DHT22;38941;53.254;6.600;2023-05-10T05:19:16;12.20;99.90
51837;DHT22;38941;53.254;6.600;2023-05-10T05:21:18;12.20;99.90
51837;DHT22;38941;53.254;6.600;2023-05-10T05:23:19;12.20;99.90
51837;DHT22;38941;53.254;6.600;2023-05-10T05:25:21;12.20;99.90
51837;DHT22;38941;53.254;6.600;2023-05-10T05:27:23;12.20;99.90
51837;DHT22;38941;53.254;6.600;2023-05-10T05:29:24;12.20;99.90
51837;DHT22;38941;53.254;6.600;2023-05-10T05:31:25;12.20;99.90
51837;DHT22;38941;53.254;6.600;2023-05-10T05:33:26;12.20;99.90
51837;DHT22;38941;53.254;6.600;2023-05-10T05:35:27;12.20;99.90
51837;DHT22;38941;53.254;6.600;2023-05-10T05:37:28;12.20;99.90
51837;DHT22;38941;53.254;6.600;2023-05-10T05:39:29;12.20;99.90
51837;DHT22;38941;53.254;6.600;2023-05-10T05:41:30;12.20;99.90
51837;DHT22;38941;53.254;6.600;2023-05-10T05:43:31;12.20;99.90
51837;DHT22;38941;53.254;6.600;2023-05-10T05:45:31;12.20;99.90
51837;DHT22;38941;53.254;6.600;2023-05-10T05:47:33;12.30;99.90
51837;DHT22;38941;53.254;6.600;2023-05-10T05:49:34;12.30;99.90
51837;DHT22;38941;53.254;6.600;2023-05-10T05:51:34;12.30;99.90
51837;DHT22;38941;53.254;6.600;2023-05-10T05:53:35;12.20;99.90
51837;DHT22;38941;53.254;6.600;2023-05-10T05:55:36;12.30;99.90
51837;DHT22;38941;53.254;6.600;2023-05-10T05:57:37;12.40;99.90
51837;DHT22;38941;53.254;6.600;2023-05-10T05:59:38;12.40;99.90
51837;DHT22;38941;53.254;6.600;2023-05-10T06:01:42;12.40;99.90
51837;DHT22;38941;53.254;6.600;2023-05-10T06:03:44;12.40;99.90
51837;DHT22;38941;53.254;6.600;2023-05-10T06:05:46;12.40;99.90
51837;DHT22;38941;53.254;6.600;2023-05-10T06:07:47;12.40;99.90
51837;DHT22;38941;53.254;6.600;2023-05-10T06:09:48;12.40;99.90
51837;DHT22;38941;53.254;6.600;2023-05-10T06:11:48;12.40;99.90
51837;DHT22;38941;53.254;6.600;2023-05-10T06:13:51;12.40;99.90
51837;DHT22;38941;53.254;6.600;2023-05-10T06:15:52;12.40;99.90
51837;DHT22;38941;53.254;6.600;2023-05-10T06:17:52;12.40;99.90
51837;DHT22;38941;53.254;6.600;2023-05-10T06:19:53;12.40;99.90
51837;DHT22;38941;53.254;6.600;2023-05-10T06:21:54;12.40;99.90
51837;DHT22;38941;53.254;6.600;2023-05-10T06:23:55;12.40;99.90
51837;DHT22;38941;53.254;6.600;2023-05-10T06:25:55;12.40;99.90
51837;DHT22;38941;53.254;6.600;2023-05-10T06:27:56;12.40;99.90
51837;DHT22;38941;53.254;6.600;2023-05-10T06:29:59;12.40;99.90
51837;DHT22;38941;53.254;6.600;2023-05-10T06:32:00;12.40;99.90
51837;DHT22;38941;53.254;6.600;2023-05-10T06:34:00;12.30;99.90
51837;DHT22;38941;53.254;6.600;2023-05-10T06:36:02;12.30;99.90
51837;DHT22;38941;53.254;6.600;2023-05-10T06:38:03;12.30;99.90
51837;DHT22;38941;53.254;6.600;2023-05-10T06:40:04;12.30;99.90
51837;DHT22;38941;53.254;6.600;2023-05-10T06:42:05;12.30;99.90
51837;DHT22;38941;53.254;6.600;2023-05-10T06:44:06;12.30;99.90
51837;DHT22;38941;53.254;6.600;2023-05-10T06:46:07;12.30;99.90
51837;DHT22;38941;53.254;6.600;2023-05-10T06:48:07;12.30;99.90
51837;DHT22;38941;53.254;6.600;2023-05-10T06:50:09;12.20;99.90
51837;DHT22;38941;53.254;6.600;2023-05-10T06:52:10;12.30;99.90
51837;DHT22;38941;53.254;6.600;2023-05-10T06:54:10;12.30;99.90
51837;DHT22;38941;53.254;6.600;2023-05-10T06:56:12;12.20;99.90
51837;DHT22;38941;53.254;6.600;2023-05-10T06:58:12;12.20;99.90
51837;DHT22;38941;53.254;6.600;2023-05-10T07:00:14;12.20;99.90
51837;DHT22;38941;53.254;6.600;2023-05-10T07:02:15;12.30;99.90
51837;DHT22;38941;53.254;6.600;2023-05-10T07:04:17;12.30;99.90
51837;DHT22;38941;53.254;6.600;2023-05-10T07:06:18;12.30;99.90
51837;DHT22;38941;53.254;6.600;2023-05-10T07:08:19;12.30;99.90
51837;DHT22;38941;53.254;6.600;2023-05-10T07:10:19;12.30;99.90
51837;DHT22;38941;53.254;6.600;2023-05-10T07:12:22;12.30;99.90
51837;DHT22;38941;53.254;6.600;2023-05-10T07:14:24;12.30;99.90
51837;DHT22;38941;53.254;6.600;2023-05-10T07:16:25;12.20;99.90
51837;DHT22;38941;53.254;6.600;2023-05-10T07:18:26;12.20;99.90
51837;DHT22;38941;53.254;6.600;2023-05-10T07:20:26;12.20;99.90
51837;DHT22;38941;53.254;6.600;2023-05-10T07:22:27;12.30;99.90
51837;DHT22;38941;53.254;6.600;2023-05-10T07:24:28;12.30;99.90
51837;DHT22;38941;53.254;6.600;2023-05-10T07:26:28;12.30;99.90
51837;DHT22;38941;53.254;6.600;2023-05-10T07:28:29;12.30;99.90
51837;DHT22;38941;53.254;6.600;2023-05-10T07:30:30;12.20;99.90
51837;DHT22;38941;53.254;6.600;2023-05-10T07:32:32;12.30;99.90
51837;DHT22;38941;53.254;6.600;2023-05-10T07:34:33;12.40;99.90
51837;DHT22;38941;53.254;6.600;2023-05-10T07:36:34;12.40;99.90
51837;DHT22;38941;53.254;6.600;2023-05-10T07:38:36;12.40;99.90
51837;DHT22;38941;53.254;6.600;2023-05-10T07:40:39;12.40;99.90
51837;DHT22;38941;53.254;6.600;2023-05-10T07:42:39;12.50;99.90
51837;DHT22;38941;53.254;6.600;2023-05-10T07:44:40;12.50;99.90
51837;DHT22;38941;53.254;6.600;2023-05-10T07:46:41;12.60;99.90
51837;DHT22;38941;53.254;6.600;2023-05-10T07:48:45;12.60;99.90
51837;DHT22;38941;53.254;6.600;2023-05-10T07:50:45;12.60;99.90
51837;DHT22;38941;53.254;6.600;2023-05-10T07:52:48;12.70;99.90
51837;DHT22;38941;53.254;6.600;2023-05-10T07:54:50;12.70;99.90
51837;DHT22;38941;53.254;6.600;2023-05-10T07:56:51;12.70;99.90
51837;DHT22;38941;53.254;6.600;2023-05-10T07:59:01;12.80;99.90
51837;DHT22;38941;53.254;6.600;2023-05-10T08:01:14;12.80;99.90
51837;DHT22;38941;53.254;6.600;2023-05-10T08:03:15;12.80;99.90
51837;DHT22;38941;53.254;6.600;2023-05-10T08:05:16;12.80;99.90
51837;DHT22;38941;53.254;6.600;2023-05-10T08:07:16;12.80;99.90
51837;DHT22;38941;53.254;6.600;2023-05-10T08:09:20;12.80;99.90
51837;DHT22;38941;53.254;6.600;2023-05-10T08:11:27;12.90;99.90
51837;DHT22;38941;53.254;6.600;2023-05-10T08:13:28;12.90;99.90
51837;DHT22;38941;53.254;6.600;2023-05-10T08:15:30;12.90;99.90
51837;DHT22;38941;53.254;6.600;2023-05-10T08:17:30;12.90;99.90
51837;DHT22;38941;53.254;6.600;2023-05-10T08:19:31;12.90;99.90
51837;DHT22;38941;53.254;6.600;2023-05-10T08:21:32;12.90;99.90
51837;DHT22;38941;53.254;6.600;2023-05-10T08:23:33;12.90;99.90
51837;DHT22;38941;53.254;6.600;2023-05-10T08:25:34;12.90;99.90
51837;DHT22;38941;53.254;6.600;2023-05-10T08:27:34;13.00;99.90
51837;DHT22;38941;53.254;6.600;2023-05-10T08:29:35;13.00;99.90
51837;DHT22;38941;53.254;6.600;2023-05-10T08:31:37;13.00;99.90
51837;DHT22;38941;53.254;6.600;2023-05-10T08:33:37;13.00;99.90
51837;DHT22;38941;53.254;6.600;2023-05-10T08:35:38;12.90;99.90
51837;DHT22;38941;53.254;6.600;2023-05-10T08:37:39;12.90;99.90
51837;DHT22;38941;53.254;6.600;2023-05-10T08:39:41;13.00;99.90
51837;DHT22;38941;53.254;6.600;2023-05-10T08:41:44;13.10;99.90
51837;DHT22;38941;53.254;6.600;2023-05-10T08:43:47;13.10;99.90
51837;DHT22;38941;53.254;6.600;2023-05-10T08:45:49;13.10;99.90
51837;DHT22;38941;53.254;6.600;2023-05-10T08:47:52;13.10;99.90
51837;DHT22;38941;53.254;6.600;2023-05-10T08:49:54;13.10;99.90
51837;DHT22;38941;53.254;6.600;2023-05-10T08:51:57;13.10;99.90
51837;DHT22;38941;53.254;6.600;2023-05-10T08:54:02;13.10;99.90
51837;DHT22;38941;53.254;6.600;2023-05-10T08:56:04;13.10;99.90
51837;DHT22;38941;53.254;6.600;2023-05-10T08:58:06;13.10;99.90
51837;DHT22;38941;53.254;6.600;2023-05-10T09:00:09;13.10;99.90
51837;DHT22;38941;53.254;6.600;2023-05-10T09:02:11;13.10;99.90
51837;DHT22;38941;53.254;6.600;2023-05-10T09:04:13;13.10;99.90
51837;DHT22;38941;53.254;6.600;2023-05-10T09:06:15;13.10;99.90
51837;DHT22;38941;53.254;6.600;2023-05-10T09:08:16;13.10;99.90
51837;DHT22;38941;53.254;6.600;2023-05-10T09:10:19;13.10;99.90
51837;DHT22;38941;53.254;6.600;2023-05-10T09:12:20;13.10;99.90
51837;DHT22;38941;53.254;6.600;2023-05-10T09:14:23;13.10;99.90
51837;DHT22;38941;53.254;6.600;2023-05-10T09:16:24;13.20;99.90
51837;DHT22;38941;53.254;6.600;2023-05-10T09:18:25;13.10;99.90
51837;DHT22;38941;53.254;6.600;2023-05-10T09:20:26;13.20;99.90
51837;DHT22;38941;53.254;6.600;2023-05-10T09:22:27;13.20;99.90
51837;DHT22;38941;53.254;6.600;2023-05-10T09:24:29;13.20;99.90
51837;DHT22;38941;53.254;6.600;2023-05-10T09:26:30;13.20;99.90
51837;DHT22;38941;53.254;6.600;2023-05-10T09:30:53;13.30;99.90
51837;DHT22;38941;53.254;6.600;2023-05-10T09:32:57;13.40;99.90
51837;DHT22;38941;53.254;6.600;2023-05-10T09:35:09;13.50;99.90
51837;DHT22;38941;53.254;6.600;2023-05-10T09:37:10;13.50;99.90
51837;DHT22;38941;53.254;6.600;2023-05-10T09:39:11;13.60;99.90
51837;DHT22;38941;53.254;6.600;2023-05-10T11:04:58;13.70;99.90
51837;DHT22;38941;53.254;6.600;2023-05-10T11:07:16;15.50;99.90
51837;DHT22;38941;53.254;6.600;2023-05-10T11:09:18;15.60;99.90
51837;DHT22;38941;53.254;6.600;2023-05-10T11:11:18;15.60;99.90
51837;DHT22;38941;53.254;6.600;2023-05-10T11:13:38;15.60;99.90
51837;DHT22;38941;53.254;6.600;2023-05-10T11:15:40;15.60;99.90
51837;DHT22;38941;53.254;6.600;2023-05-10T11:17:48;15.60;99.90
51837;DHT22;38941;53.254;6.600;2023-05-10T11:20:09;15.60;99.90
51837;DHT22;38941;53.254;6.600;2023-05-10T11:22:13;15.60;99.90
51837;DHT22;38941;53.254;6.600;2023-05-10T11:24:22;15.50;99.90
51837;DHT22;38941;53.254;6.600;2023-05-10T11:26:25;15.50;99.90
51837;DHT22;38941;53.254;6.600;2023-05-10T11:28:26;15.50;99.90
51837;DHT22;38941;53.254;6.600;2023-05-10T11:30:28;15.50;99.90
51837;DHT22;38941;53.254;6.600;2023-05-10T11:32:29;15.50;99.90
51837;DHT22;38941;53.254;6.600;2023-05-10T11:34:31;15.60;99.90
51837;DHT22;38941;53.254;6.600;2023-05-10T11:40:40;15.70;99.90
51837;DHT22;38941;53.254;6.600;2023-05-10T11:42:40;15.90;99.90
51837;DHT22;38941;53.254;6.600;2023-05-10T11:44:41;15.80;99.90
51837;DHT22;38941;53.254;6.600;2023-05-10T11:46:44;15.80;99.90
51837;DHT22;38941;53.254;6.600;2023-05-10T11:48:49;15.70;99.90
51837;DHT22;38941;53.254;6.600;2023-05-10T11:50:51;15.70;99.90
51837;DHT22;38941;53.254;6.600;2023-05-10T11:52:52;15.70;99.90
51837;DHT22;38941;53.254;6.600;2023-05-10T11:54:55;15.80;99.90
51837;DHT22;38941;53.254;6.600;2023-05-10T11:56:56;15.80;99.90
51837;DHT22;38941;53.254;6.600;2023-05-10T11:58:58;15.90;99.90
51837;DHT22;38941;53.254;6.600;2023-05-10T12:00:59;16.00;99.90
51837;DHT22;38941;53.254;6.600;2023-05-10T12:03:01;16.00;99.90
51837;DHT22;38941;53.254;6.600;2023-05-10T12:05:03;16.10;99.90
51837;DHT22;38941;53.254;6.600;2023-05-10T12:07:04;16.10;99.90
51837;DHT22;38941;53.254;6.600;2023-05-10T12:09:09;16.20;99.90
51837;DHT22;38941;53.254;6.600;2023-05-10T12:11:12;16.20;99.90
51837;DHT22;38941;53.254;6.600;2023-05-10T12:13:14;16.20;99.90
51837;DHT22;38941;53.254;6.600;2023-05-10T12:15:23;16.10;99.90
51837;DHT22;38941;53.254;6.600;2023-05-10T12:17:27;16.00;99.90
51837;DHT22;38941;53.254;6.600;2023-05-10T12:19:37;15.90;99.90
51837;DHT22;38941;53.254;6.600;2023-05-10T12:21:38;15.90;99.90
51837;DHT22;38941;53.254;6.600;2023-05-10T12:23:39;15.80;99.90
51837;DHT22;38941;53.254;6.600;2023-05-10T12:25:42;15.70;99.90
51837;DHT22;38941;53.254;6.600;2023-05-10T12:27:56;15.70;99.90
51837;DHT22;38941;53.254;6.600;2023-05-10T12:30:02;15.60;99.90
51837;DHT22;38941;53.254;6.600;2023-05-10T12:32:03;15.60;99.90
51837;DHT22;38941;53.254;6.600;2023-05-10T12:34:03;15.60;99.90
51837;DHT22;38941;53.254;6.600;2023-05-10T12:36:06;15.50;99.90
51837;DHT22;38941;53.254;6.600;2023-05-10T12:40:33;15.40;99.90
51837;DHT22;38941;53.254;6.600;2023-05-10T12:42:35;15.30;99.90
51837;DHT22;38941;53.254;6.600;2023-05-10T12:44:36;15.30;99.90
51837;DHT22;38941;53.254;6.600;2023-05-10T12:46:37;15.30;99.90
51837;DHT22;38941;53.254;6.600;2023-05-10T12:48:38;15.30;99.90
51837;DHT22;38941;53.254;6.600;2023-05-10T12:50:41;15.30;99.90
51837;DHT22;38941;53.254;6.600;2023-05-10T12:52:41;15.30;99.90
51837;DHT22;38941;53.254;6.600;2023-05-10T12:54:43;15.30;99.90
51837;DHT22;38941;53.254;6.600;2023-05-10T12:56:44;15.40;99.90
51837;DHT22;38941;53.254;6.600;2023-05-10T12:58:45;15.40;99.90
51837;DHT22;38941;53.254;6.600;2023-05-10T13:00:49;15.40;99.90
51837;DHT22;38941;53.254;6.600;2023-05-10T13:02:54;15.50;99.90
51837;DHT22;38941;53.254;6.600;2023-05-10T13:04:54;15.50;99.90
51837;DHT22;38941;53.254;6.600;2023-05-10T13:06:56;15.60;99.90
51837;DHT22;38941;53.254;6.600;2023-05-10T13:08:59;15.70;99.90
51837;DHT22;38941;53.254;6.600;2023-05-10T13:11:02;15.70;99.90
51837;DHT22;38941;53.254;6.600;2023-05-10T13:13:03;15.80;99.90
51837;DHT22;38941;53.254;6.600;2023-05-10T13:15:05;15.80;99.90
51837;DHT22;38941;53.254;6.600;2023-05-10T13:17:07;15.80;99.90
51837;DHT22;38941;53.254;6.600;2023-05-10T13:19:07;15.80;99.90
51837;DHT22;38941;53.254;6.600;2023-05-10T13:21:09;15.80;99.90
51837;DHT22;38941;53.254;6.600;2023-05-10T13:23:10;15.80;99.90
51837;DHT22;38941;53.254;6.600;2023-05-10T13:25:11;15.90;99.90
51837;DHT22;38941;53.254;6.600;2023-05-10T13:27:13;16.00;99.90
51837;DHT22;38941;53.254;6.600;2023-05-10T13:29:14;16.00;99.90
51837;DHT22;38941;53.254;6.600;2023-05-10T13:33:18;16.20;99.90
51837;DHT22;38941;53.254;6.600;2023-05-10T13:35:19;16.40;99.90
51837;DHT22;38941;53.254;6.600;2023-05-10T13:37:22;16.40;99.90
51837;DHT22;38941;53.254;6.600;2023-05-10T14:19:51;16.50;99.90
51837;DHT22;38941;53.254;6.600;2023-05-10T14:21:52;16.40;99.90
51837;DHT22;38941;53.254;6.600;2023-05-10T14:23:53;16.30;99.90
51837;DHT22;38941;53.254;6.600;2023-05-10T14:25:54;16.30;99.90
51837;DHT22;38941;53.254;6.600;2023-05-10T14:27:55;16.30;99.90
51837;DHT22;38941;53.254;6.600;2023-05-10T14:29:56;16.30;99.90
51837;DHT22;38941;53.254;6.600;2023-05-10T14:31:56;16.30;99.90
51837;DHT22;38941;53.254;6.600;2023-05-10T14:33:57;16.30;99.90
51837;DHT22;38941;53.254;6.600;2023-05-10T14:36:00;16.30;99.90
51837;DHT22;38941;53.254;6.600;2023-05-10T14:38:02;16.40;99.90
51837;DHT22;38941;53.254;6.600;2023-05-10T14:40:04;16.40;99.90
51837;DHT22;38941;53.254;6.600;2023-05-10T14:42:05;16.60;99.90
51837;DHT22;38941;53.254;6.600;2023-05-10T14:44:05;16.70;99.90
51837;DHT22;38941;53.254;6.600;2023-05-10T14:46:06;16.80;99.90
51837;DHT22;38941;53.254;6.600;2023-05-10T14:48:07;16.90;99.90
51837;DHT22;38941;53.254;6.600;2023-05-10T16:57:53;17.00;99.90
51837;DHT22;38941;53.254;6.600;2023-05-10T17:32:29;16.10;99.90
51837;DHT22;38941;53.254;6.600;2023-05-10T17:34:30;15.20;99.90
51837;DHT22;38941;53.254;6.600;2023-05-10T17:36:31;15.10;99.90
51837;DHT22;38941;53.254;6.600;2023-05-10T17:38:32;15.00;99.90
51837;DHT22;38941;53.254;6.600;2023-05-10T17:40:33;15.00;99.90
51837;DHT22;38941;53.254;6.600;2023-05-10T17:42:34;15.00;99.90
51837;DHT22;38941;53.254;6.600;2023-05-10T17:44:34;15.00;99.90
51837;DHT22;38941;53.254;6.600;2023-05-10T17:46:35;15.00;99.90
51837;DHT22;38941;53.254;6.600;2023-05-10T17:48:37;15.00;99.90
51837;DHT22;38941;53.254;6.600;2023-05-10T17:50:41;14.90;99.90
51837;DHT22;38941;53.254;6.600;2023-05-10T17:52:42;14.90;99.90
51837;DHT22;38941;53.254;6.600;2023-05-10T17:54:43;14.80;99.90
51837;DHT22;38941;53.254;6.600;2023-05-10T17:56:45;14.80;99.90
51837;DHT22;38941;53.254;6.600;2023-05-10T18:29:14;14.70;99.90
51837;DHT22;38941;53.254;6.600;2023-05-10T18:31:15;14.60;99.90
51837;DHT22;38941;53.254;6.600;2023-05-10T18:33:15;14.60;99.90
51837;DHT22;38941;53.254;6.600;2023-05-10T18:35:17;14.60;99.90